Latest Weather Observations for Northeast Island

IDD60801

Issued at 2:05 pm CST Thursday 24 April 2014 (issued every 30 minutes, with the page automatically refreshed every 10 minutes)

About weather observations | Map of weather stations | Latest weather observations for NT | Other Formats
Station Details ID: 200782 Name: NORTH EAST ISLAND Lat: -13.64 Lon: 136.94 Height: 17.4 m
Data from the previous 72 hours. | See also: Recent months for locations in Northern Territory
Date/Time
CST
Temp
°C
App
Temp
°C
Dew
Point
Rel
Hum
%
Delta-T
°C
Wind Press
QNH
hPa
Press
MSL
hPa
Rain
since 9 am
mm
Dir
 
Spd
km/h
Gust
km/h
Spd
kts
Gust
kts
24/02:00pm 27.4 29.3 23.8 81 2.5 NNW 20 32 11 17 1006.2 - 40.0
24/01:30pm 29.3 34.3 24.8 77 3.2 ENE 7 13 4 7 1006.7 - 40.0
24/01:00pm 27.0 30.7 23.9 83 2.1 NNE 11 19 6 10 1007.3 - 40.0
24/12:30pm 26.7 30.7 25.1 91 1.1 NNE 13 20 7 11 1007.8 - 40.0
24/12:00pm 26.7 31.6 25.8 95 0.6 NE 11 20 6 11 1007.9 1007.8 40.0
24/11:30am 25.5 28.5 24.6 95 0.6 ENE 17 26 9 14 1008.6 - 39.4
24/11:00am 25.5 28.0 24.5 94 0.7 ENE 19 28 10 15 1009.3 - 31.0
24/10:30am 25.6 30.7 24.6 94 0.7 ENE 6 7 3 4 1009.7 - 21.4
24/10:00am 25.5 29.6 24.5 94 0.7 NE 11 20 6 11 1009.6 - 12.4
24/09:30am 25.8 30.4 24.8 94 0.7 N 9 22 5 12 1009.5 - 11.6
24/09:00am 25.7 28.0 24.5 93 0.8 NE 20 32 11 17 1008.9 1008.8 115.2
24/08:30am 25.9 29.7 24.7 93 0.8 NNW 13 20 7 11 1008.8 - 108.0
24/08:00am 25.6 29.2 24.4 93 0.8 N 13 24 7 13 1008.3 - 105.2
24/07:30am 25.6 28.8 24.4 93 0.8 NNW 15 22 8 12 1007.6 - 102.4
24/07:00am 26.0 30.1 24.6 92 1.0 NW 11 19 6 10 1007.5 - 100.2
24/06:30am 26.0 30.5 24.6 92 1.0 N 9 15 5 8 1007.1 - 97.6
24/06:00am 26.0 29.6 24.4 91 1.1 NW 13 17 7 9 1006.9 1006.8 90.4
24/05:30am 26.3 30.2 24.3 89 1.4 N 11 17 6 9 1006.8 - 85.8
24/05:00am 26.3 29.1 23.6 85 1.8 NNE 15 26 8 14 1006.6 - 85.0
24/04:30am 26.4 29.1 23.5 84 2.0 N 15 20 8 11 1006.5 - 85.0
24/04:00am 26.7 30.5 24.0 85 1.9 N 11 20 6 11 1006.3 - 85.0
24/03:30am 26.4 29.1 23.5 84 2.0 N 15 24 8 13 1006.0 - 84.4
24/03:00am 26.1 29.1 24.0 88 1.4 N 15 22 8 12 1006.2 1006.1 84.2
24/02:30am 26.8 29.4 23.9 84 2.0 N 17 26 9 14 1007.0 - 83.6
24/02:00am 26.9 29.8 23.8 83 2.1 N 15 26 8 14 1007.5 - 83.6
24/01:30am 26.6 30.1 23.5 83 2.1 N 11 15 6 8 1008.0 - 83.6
24/01:00am 26.7 29.1 23.6 83 2.1 N 17 22 9 12 1008.3 - 83.6
24/12:30am 26.9 29.5 24.0 84 2.0 N 17 28 9 15 1008.5 - 83.6
24/12:00am 26.8 30.0 24.3 86 1.7 N 15 26 8 14 1008.4 1008.3 83.6
 
Date/Time
CST
Temp
°C
App
Temp
°C
Dew
Point
Rel
Hum
%
Delta-T
°C
Wind Press
QNH
hPa
Press
MSL
hPa
Rain
since 9 am
mm
Dir
 
Spd
km/h
Gust
km/h
Spd
kts
Gust
kts
23/11:30pm 26.1 28.8 24.1 89 1.4 N 17 26 9 14 1008.6 - 83.6
23/11:00pm 25.7 29.9 24.1 91 1.1 NNE 9 15 5 8 1009.7 - 83.4
23/10:30pm 25.4 28.7 23.8 91 1.1 N 13 20 7 11 1009.6 - 83.4
23/10:00pm 25.1 27.5 23.7 92 1.0 N 17 28 9 15 1009.8 - 83.4
23/09:30pm 24.8 27.6 23.6 93 0.8 N 15 22 8 12 1009.8 - 83.2
23/09:00pm 24.8 28.3 23.6 93 0.8 N 11 19 6 10 1009.9 1009.8 82.2
23/08:30pm 25.0 27.9 23.8 93 0.8 NNW 15 24 8 13 1009.8 - 79.2
23/08:07pm 24.7 24.5 22.8 89 1.3 WNW 28 48 15 26 1009.9 - 55.2
23/08:00pm 25.8 26.9 23.7 88 1.4 WNW 24 41 13 22 1009.6 - 40.4
23/07:30pm 26.6 30.5 24.3 87 1.6 NE 11 17 6 9 1008.6 - 33.2
23/07:00pm 26.5 30.0 24.2 87 1.6 NE 13 20 7 11 1008.3 - 33.2
23/06:30pm 26.2 30.0 24.1 88 1.4 ENE 11 15 6 8 1008.1 - 33.2
23/06:00pm 26.1 29.4 23.8 87 1.6 ENE 13 19 7 10 1007.7 1007.6 33.2
23/05:30pm 26.1 29.6 23.6 86 1.7 ENE 11 17 6 9 1007.5 - 33.2
23/05:00pm 26.2 29.9 23.9 87 1.6 E 11 15 6 8 1007.4 - 33.2
23/04:30pm 26.0 30.5 23.9 88 1.4 ESE 7 11 4 6 1007.5 - 33.2
23/04:00pm 25.7 29.6 23.6 88 1.4 ESE 9 13 5 7 1007.5 - 33.2
23/03:30pm 25.8 30.3 24.0 90 1.2 SE 7 9 4 5 1007.5 - 33.2
23/03:00pm 25.8 31.6 24.6 93 0.8 NE 2 6 1 3 1007.5 1007.4 33.2
23/02:30pm 25.3 31.2 24.1 93 0.8 CALM 0 0 0 0 1007.7 - 33.2
23/02:00pm 25.1 29.8 23.9 93 0.8 N 6 7 3 4 1008.0 - 33.0
23/01:30pm 25.2 29.3 24.0 93 0.8 N 9 13 5 7 1008.2 - 32.6
23/01:00pm 25.0 29.4 23.4 91 1.1 NNW 6 11 3 6 1009.0 - 22.8
23/12:30pm 25.3 29.6 23.7 91 1.1 NNE 7 13 4 7 1009.2 - 14.8
23/12:00pm 25.9 30.8 24.3 91 1.1 NNE 6 11 3 6 1009.4 1009.3 12.4
23/11:30am 25.5 29.1 23.7 90 1.2 NNE 11 17 6 9 1010.0 - 12.2
23/11:00am 28.2 32.7 24.0 78 2.9 NE 7 15 4 8 1010.1 - 0.2
23/10:30am 28.4 32.9 24.6 80 2.6 NE 9 15 5 8 1010.4 - 0.2
23/10:00am 27.9 32.1 24.1 80 2.6 NE 9 17 5 9 1010.7 - 0.0
23/09:30am 27.5 32.1 24.1 82 2.3 NE 7 13 4 7 1010.7 - 0.0
23/09:00am 27.0 31.7 24.3 85 1.9 NE 7 9 4 5 1010.6 1010.5 15.6
23/08:30am 26.6 31.3 24.3 87 1.6 ENE 7 11 4 6 1010.3 - 15.6
23/08:00am 26.4 31.0 24.2 88 1.5 ENE 7 13 4 7 1010.2 - 15.6
23/07:30am 26.2 29.6 24.1 88 1.4 E 13 17 7 9 1009.9 - 15.6
23/07:00am 25.9 30.0 23.9 89 1.4 E 9 15 5 8 1009.9 - 15.6
23/06:30am 25.8 30.3 24.0 90 1.2 E 7 11 4 6 1009.6 - 15.6
23/06:00am 25.6 30.2 23.8 90 1.2 ENE 6 7 3 4 1009.1 1009.0 15.6
23/05:30am 25.8 29.6 24.0 90 1.2 E 11 20 6 11 1008.7 - 15.6
23/05:00am 25.3 28.5 23.7 91 1.1 ESE 13 19 7 10 1008.5 - 15.6
23/04:30am 24.8 29.2 23.4 92 1.0 ESE 6 9 3 5 1008.7 - 15.6
23/04:00am 24.7 28.8 23.3 92 1.0 E 7 11 4 6 1008.6 - 15.6
23/03:30am 24.5 28.5 23.1 92 0.9 NE 7 9 4 5 1008.6 - 15.6
23/03:00am 24.6 28.5 23.0 91 1.1 NE 7 11 4 6 1008.6 1008.5 15.6
23/02:30am 25.2 28.7 23.6 91 1.1 N 11 17 6 9 1009.0 - 13.2
23/02:00am 25.7 27.7 23.0 85 1.8 NNW 17 26 9 14 1009.2 - 10.8
23/01:30am 26.6 31.8 23.5 83 2.1 ENE 2 7 1 4 1009.4 - 10.8
23/01:00am 26.7 31.1 23.4 82 2.3 E 6 9 3 5 1009.9 - 10.8
23/12:30am 26.9 31.4 23.6 82 2.3 E 6 9 3 5 1010.2 - 10.8
23/12:00am 26.9 30.2 23.2 80 2.5 ENE 11 17 6 9 1010.2 1010.1 10.8
 
Date/Time
CST
Temp
°C
App
Temp
°C
Dew
Point
Rel
Hum
%
Delta-T
°C
Wind Press
QNH
hPa
Press
MSL
hPa
Rain
since 9 am
mm
Dir
 
Spd
km/h
Gust
km/h
Spd
kts
Gust
kts
22/11:30pm 26.9 30.2 23.8 83 2.1 E 13 20 7 11 1010.5 - 10.8
22/11:00pm 26.7 30.1 24.0 85 1.9 E 13 20 7 11 1010.4 - 10.8
22/10:30pm 26.6 29.7 24.1 86 1.7 E 15 24 8 13 1010.6 - 10.8
22/10:00pm 26.6 28.7 24.1 86 1.7 E 20 32 11 17 1010.4 - 10.8
22/09:30pm 27.0 29.1 24.1 84 2.0 E 20 30 11 16 1010.5 - 10.8
22/09:00pm 26.5 29.2 23.4 83 2.1 E 15 20 8 11 1010.4 1010.3 10.8
22/08:30pm 26.5 29.5 24.0 86 1.7 ENE 15 24 8 13 1010.4 - 10.8
22/08:00pm 26.1 28.7 24.0 88 1.4 ENE 17 28 9 15 1010.1 - 10.8
22/07:30pm 25.9 28.2 24.1 90 1.2 ENE 19 26 10 14 1009.7 - 10.8
22/07:00pm 25.9 28.1 24.3 91 1.1 ENE 20 30 11 16 1009.4 - 10.8
22/06:30pm 25.9 28.3 24.3 91 1.1 ENE 19 28 10 15 1008.9 - 10.8
22/06:00pm 26.0 28.2 24.2 90 1.2 E 20 26 11 14 1008.7 1008.6 9.6
22/05:30pm 25.6 27.3 24.0 91 1.1 ENE 22 32 12 17 1008.7 - 9.6
22/05:00pm 25.5 27.7 23.9 91 1.1 E 19 30 10 16 1008.8 - 9.4
22/04:30pm 25.0 27.3 23.4 91 1.1 E 17 26 9 14 1008.8 - 8.8
22/04:00pm 25.1 27.4 23.5 91 1.1 ENE 17 24 9 13 1008.5 - 5.8
22/03:30pm 25.2 28.3 23.6 91 1.1 ENE 13 20 7 11 1008.5 - 5.2
22/03:00pm 24.9 27.8 23.1 90 1.2 NE 13 20 7 11 1008.6 1008.5 4.0
22/02:30pm 25.4 27.5 23.8 91 1.1 NNE 19 28 10 15 1008.3 - 3.4
22/02:00pm 25.2 28.3 23.6 91 1.1 NE 13 20 7 11 1008.9 - 2.2
22/01:30pm 25.2 27.9 23.4 90 1.2 NE 15 24 8 13 1009.1 - 1.8
22/01:00pm 25.8 28.6 23.7 88 1.4 ENE 15 26 8 14 1009.6 - 1.0
22/12:30pm 26.4 30.0 24.4 89 1.4 ENE 13 19 7 10 1010.0 - 1.0
22/12:00pm 26.2 28.9 23.5 85 1.8 E 15 28 8 15 1010.4 1010.3 0.6
22/11:30am 28.3 30.3 23.9 77 3.0 ESE 20 28 11 15 1011.0 - 0.2
22/11:00am 28.0 30.4 23.6 77 3.0 ESE 17 28 9 15 1011.2 - 0.2
22/10:30am 27.4 29.1 23.4 79 2.7 ESE 20 28 11 15 1011.3 - 0.0
22/10:00am 27.3 27.4 24.0 82 2.3 ESE 30 44 16 24 1011.5 - 0.0
22/09:58am 27.3 27.7 23.7 81 2.5 ESE 28 44 15 24 1011.5 - 0.0
22/09:30am 28.7 31.2 23.8 75 3.4 E 17 24 9 13 1011.7 - 0.0
22/09:00am 28.5 31.2 24.1 77 3.0 E 17 26 9 14 1011.4 1011.3 7.0
22/08:30am 27.4 28.8 23.6 80 2.6 E 22 32 12 17 1011.2 - 7.0
22/08:00am 25.9 29.1 24.3 91 1.1 E 15 35 8 19 1011.1 - 7.0
22/07:30am 24.4 24.9 22.7 90 1.1 ENE 24 41 13 22 1011.4 - 6.8
22/07:24am 24.4 23.8 22.7 90 1.1 ENE 30 48 16 26 1011.3 - 6.6
22/07:11am 25.0 24.7 23.2 90 1.2 ENE 30 44 16 24 1011.1 - 4.6
22/07:00am 25.9 28.8 24.5 92 1.0 E 17 26 9 14 1010.9 - 2.8
22/06:30am 25.9 25.7 24.1 90 1.2 E 32 43 17 23 1010.4 - 0.4
22/06:00am 26.1 24.1 23.2 84 2.0 E 39 57 21 31 1010.1 1010.0 0.0
22/05:37am 27.8 27.9 23.2 76 3.1 E 28 46 15 25 1009.7 - 0.0
22/05:30am 27.7 27.4 23.3 77 3.0 E 30 46 16 25 1009.6 - 0.0
22/05:25am 28.0 28.4 23.8 78 2.9 ESE 28 46 15 25 1009.6 - 0.0
22/05:00am 27.6 28.5 24.0 81 2.5 E 26 39 14 21 1009.4 - 0.0
22/04:30am 26.7 26.8 23.2 81 2.4 E 28 41 15 22 1009.7 - 0.0
22/04:00am 26.7 24.1 22.8 79 2.6 E 41 59 22 32 1009.8 - 0.0
22/03:43am 28.7 28.2 23.6 74 3.5 ESE 32 54 17 29 1009.6 - 0.0
22/03:30am 28.7 28.5 23.4 73 3.6 ESE 30 41 16 22 1009.7 - 0.0
22/03:00am 28.6 29.6 23.5 74 3.5 ESE 24 35 13 19 1009.6 1009.5 0.0
22/02:30am 28.8 29.8 23.5 73 3.6 ESE 24 35 13 19 1009.7 - 0.0
22/02:00am 28.8 29.2 23.2 71 3.8 ESE 26 35 14 19 1009.9 - 0.0
22/01:30am 28.8 30.2 23.5 73 3.6 ESE 22 35 12 19 1010.0 - 0.0
22/01:00am 28.8 29.1 23.0 71 4.0 ESE 26 35 14 19 1010.5 - 0.0
22/12:30am 28.9 29.8 23.3 72 3.8 ESE 24 33 13 18 1010.9 - 0.0
22/12:00am 28.9 29.6 23.6 73 3.7 ESE 26 33 14 18 1011.0 1010.9 0.0
 
Date/Time
CST
Temp
°C
App
Temp
°C
Dew
Point
Rel
Hum
%
Delta-T
°C
Wind Press
QNH
hPa
Press
MSL
hPa
Rain
since 9 am
mm
Dir
 
Spd
km/h
Gust
km/h
Spd
kts
Gust
kts
21/11:30pm 28.9 29.4 23.3 72 3.8 ESE 26 37 14 20 1011.1 - 0.0
21/11:00pm 28.9 29.4 23.3 72 3.8 ESE 26 35 14 19 1011.0 - 0.0
21/10:30pm 28.9 29.7 23.1 71 4.0 ESE 24 35 13 19 1010.9 - 0.0
21/10:00pm 28.7 29.1 22.4 68 4.3 ESE 24 35 13 19 1011.0 - 0.0
21/09:30pm 28.8 29.2 22.5 68 4.3 ESE 24 37 13 20 1011.2 - 0.0
21/09:00pm 28.9 29.6 22.9 70 4.1 ESE 24 33 13 18 1011.3 1011.2 0.0
21/08:30pm 28.7 29.0 22.2 68 4.4 ESE 24 35 13 19 1011.1 - 0.0
21/08:00pm 28.7 28.9 22.0 67 4.5 ESE 24 32 13 17 1011.2 - 0.0
21/07:30pm 28.6 28.5 21.4 65 4.8 ESE 24 32 13 17 1011.0 - 0.0
21/07:00pm 28.7 29.2 22.0 67 4.5 ESE 22 32 12 17 1010.8 - 0.0
21/06:30pm 28.7 29.5 21.7 66 4.7 ESE 20 30 11 16 1010.7 - 0.0
21/06:00pm 28.9 29.9 22.2 67 4.5 ESE 20 30 11 16 1010.5 1010.4 0.0
21/05:30pm 29.2 30.3 21.9 64 4.9 ESE 19 28 10 15 1010.4 - 0.0
21/05:00pm 29.5 30.6 21.2 61 5.5 E 17 28 9 15 1010.3 - 0.0
21/04:30pm 30.1 31.1 21.7 60 5.7 ESE 19 28 10 15 1010.2 - 0.0
21/04:00pm 30.4 30.9 21.2 58 6.2 ESE 20 30 11 16 1010.1 - 0.0
21/03:30pm 30.9 31.9 21.7 58 6.2 E 19 30 10 16 1009.8 - 0.0
21/03:00pm 31.1 31.9 21.3 56 6.6 E 19 30 10 16 1010.0 1009.9 0.0
21/02:30pm 31.5 32.6 21.9 56 6.5 E 19 28 10 15 1009.9 - 0.0

Other Formats:

Comma delimited format used in spreadsheet applications
http://www.bom.gov.au/fwo/IDD60801/IDD60801.94151.axf

JavaScript Object Notation format (JSON) in row-major order
http://www.bom.gov.au/fwo/IDD60801/IDD60801.94151.json